KZR313 UACC-UATE
Flight info
| Callsign | KZR313 |
|---|---|
| Flight time | 2h 37m |
| Altitude | 38000 |
| Route | VETUB2A VETUB P574 RIBMO RIBMO5F |
| Aircraft | A20N/M-SDE2E3FGHIRWXY/LB1 |
Departure
| Time | 2026-05-06 11:13 |
|---|---|
| Airport | Nursultan Nazarbayev International Airport (UACC) |
Arrival
| Time | 2026-05-06 13:50 |
|---|---|
| Airport | Aktau International Airport (UATE) |
| Time | Latitude | Longitude | Altitude | Speed | Heading |
|---|---|---|---|---|---|
| 2026-05-06 11:01 | 51.02440 | 71.45969 | 1173 ft | 0 kts | 44° |
| 2026-05-06 11:07 | 51.02442 | 71.45972 | 1173 ft | 1 kts | 44° |
| 2026-05-06 11:07 | 51.02451 | 71.45988 | 1173 ft | 2 kts | 51° |
| 2026-05-06 11:08 | 51.02461 | 71.46024 | 1173 ft | 4 kts | 83° |
| 2026-05-06 11:08 | 51.02448 | 71.46077 | 1173 ft | 6 kts | 122° |
| 2026-05-06 11:08 | 51.02408 | 71.46152 | 1173 ft | 9 kts | 134° |
| 2026-05-06 11:08 | 51.02358 | 71.46231 | 1173 ft | 8 kts | 136° |
| 2026-05-06 11:09 | 51.02309 | 71.46235 | 1173 ft | 8 kts | 221° |
| 2026-05-06 11:09 | 51.02265 | 71.46171 | 1173 ft | 9 kts | 222° |
| 2026-05-06 11:09 | 51.02217 | 71.46098 | 1173 ft | 10 kts | 224° |
| 2026-05-06 11:09 | 51.02165 | 71.46017 | 1173 ft | 10 kts | 226° |
| 2026-05-06 11:10 | 51.02106 | 71.45922 | 1173 ft | 12 kts | 225° |
| 2026-05-06 11:10 | 51.02042 | 71.45822 | 1173 ft | 13 kts | 224° |
| 2026-05-06 11:10 | 51.01974 | 71.45715 | 1173 ft | 14 kts | 224° |
| 2026-05-06 11:10 | 51.01903 | 71.45602 | 1173 ft | 14 kts | 224° |
| 2026-05-06 11:11 | 51.01841 | 71.45507 | 1173 ft | 8 kts | 219° |
| 2026-05-06 11:11 | 51.01786 | 71.45511 | 1173 ft | 9 kts | 139° |
| 2026-05-06 11:11 | 51.01736 | 71.45591 | 1173 ft | 10 kts | 133° |
| 2026-05-06 11:11 | 51.01688 | 71.45688 | 1173 ft | 11 kts | 100° |
| 2026-05-06 11:12 | 51.01727 | 71.45792 | 1173 ft | 11 kts | 45° |
| 2026-05-06 11:12 | 51.01923 | 71.46094 | 1173 ft | 75 kts | 43° |
| 2026-05-06 11:12 | 51.02462 | 71.46939 | 1173 ft | 139 kts | 43° |
| 2026-05-06 11:12 | 51.03227 | 71.48159 | 1409 ft | 166 kts | 44° |
| 2026-05-06 11:13 | 51.04042 | 71.49488 | 1991 ft | 173 kts | 46° |
| 2026-05-06 11:13 | 51.04510 | 71.51221 | 2618 ft | 181 kts | 90° |
| 2026-05-06 11:13 | 51.04089 | 71.53054 | 3231 ft | 183 kts | 121° |
| 2026-05-06 11:13 | 51.03344 | 71.54820 | 3607 ft | 199 kts | 123° |
| 2026-05-06 11:14 | 51.02581 | 71.56748 | 3943 ft | 218 kts | 120° |
| 2026-05-06 11:14 | 51.01816 | 71.58940 | 4395 ft | 232 kts | 118° |
| 2026-05-06 11:14 | 51.01078 | 71.61247 | 4966 ft | 241 kts | 117° |
| 2026-05-06 11:14 | 51.00322 | 71.63612 | 5676 ft | 243 kts | 124° |
| 2026-05-06 11:15 | 50.99136 | 71.65408 | 6369 ft | 241 kts | 159° |
| 2026-05-06 11:15 | 50.97474 | 71.65919 | 6887 ft | 245 kts | 191° |
| 2026-05-06 11:15 | 50.95880 | 71.64978 | 7356 ft | 253 kts | 221° |
| 2026-05-06 11:15 | 50.94700 | 71.62837 | 7849 ft | 263 kts | 237° |
| 2026-05-06 11:16 | 50.93608 | 71.60493 | 8589 ft | 268 kts | 236° |
| 2026-05-06 11:16 | 50.92466 | 71.58168 | 9433 ft | 269 kts | 235° |
| 2026-05-06 11:16 | 50.91320 | 71.55860 | 10230 ft | 270 kts | 235° |
| 2026-05-06 11:16 | 50.90157 | 71.53526 | 10968 ft | 272 kts | 236° |
| 2026-05-06 11:17 | 50.88988 | 71.51180 | 11678 ft | 275 kts | 236° |
| 2026-05-06 11:17 | 50.87808 | 71.48806 | 12380 ft | 278 kts | 236° |
| 2026-05-06 11:17 | 50.86603 | 71.46388 | 13051 ft | 282 kts | 236° |
| 2026-05-06 11:17 | 50.85379 | 71.43935 | 13760 ft | 285 kts | 236° |
| 2026-05-06 11:18 | 50.84144 | 71.41459 | 14445 ft | 287 kts | 236° |
| 2026-05-06 11:18 | 50.82897 | 71.38987 | 15112 ft | 290 kts | 234° |
| 2026-05-06 11:18 | 50.81564 | 71.36639 | 15752 ft | 294 kts | 230° |
| 2026-05-06 11:18 | 50.80104 | 71.34354 | 16400 ft | 297 kts | 229° |
| 2026-05-06 11:19 | 50.78619 | 71.32056 | 17029 ft | 300 kts | 229° |
| 2026-05-06 11:19 | 50.77130 | 71.29754 | 17640 ft | 303 kts | 229° |
| 2026-05-06 11:19 | 50.75627 | 71.27434 | 18253 ft | 306 kts | 229° |
| 2026-05-06 11:19 | 50.74102 | 71.25084 | 18840 ft | 309 kts | 229° |
| 2026-05-06 11:20 | 50.72572 | 71.22729 | 19433 ft | 312 kts | 229° |
| 2026-05-06 11:20 | 50.71009 | 71.20321 | 20012 ft | 315 kts | 229° |
| 2026-05-06 11:20 | 50.69428 | 71.17884 | 20310 ft | 327 kts | 229° |
| 2026-05-06 11:20 | 50.67776 | 71.15340 | 20560 ft | 340 kts | 229° |
| 2026-05-06 11:21 | 50.66044 | 71.12681 | 20830 ft | 352 kts | 229° |
| 2026-05-06 11:21 | 50.64267 | 71.09959 | 21217 ft | 359 kts | 229° |
| 2026-05-06 11:21 | 50.62480 | 71.07233 | 21719 ft | 363 kts | 229° |
| 2026-05-06 11:21 | 50.60669 | 71.04475 | 22261 ft | 366 kts | 229° |
| 2026-05-06 11:22 | 50.58852 | 71.01652 | 22819 ft | 366 kts | 233° |
| 2026-05-06 11:22 | 50.57511 | 70.98350 | 23321 ft | 360 kts | 252° |
| 2026-05-06 11:22 | 50.56930 | 70.94583 | 23848 ft | 357 kts | 268° |
| 2026-05-06 11:22 | 50.57101 | 70.90723 | 24351 ft | 359 kts | 282° |
| 2026-05-06 11:23 | 50.57740 | 70.86890 | 24876 ft | 361 kts | 284° |
| 2026-05-06 11:23 | 50.58379 | 70.83075 | 25354 ft | 363 kts | 284° |
| 2026-05-06 11:23 | 50.59016 | 70.79250 | 25804 ft | 366 kts | 284° |
| 2026-05-06 11:23 | 50.59659 | 70.75395 | 26253 ft | 368 kts | 284° |
| 2026-05-06 11:24 | 50.60307 | 70.71507 | 26741 ft | 369 kts | 284° |
| 2026-05-06 11:24 | 50.60957 | 70.67618 | 27196 ft | 370 kts | 284° |
| 2026-05-06 11:24 | 50.61610 | 70.63687 | 27625 ft | 372 kts | 284° |
| 2026-05-06 11:24 | 50.62259 | 70.59763 | 28011 ft | 374 kts | 284° |
| 2026-05-06 11:25 | 50.62912 | 70.55821 | 28396 ft | 375 kts | 284° |
| 2026-05-06 11:25 | 50.63570 | 70.51826 | 28789 ft | 376 kts | 284° |
| 2026-05-06 11:25 | 50.64221 | 70.47871 | 29156 ft | 377 kts | 284° |
| 2026-05-06 11:25 | 50.64882 | 70.43843 | 29505 ft | 378 kts | 284° |
| 2026-05-06 11:26 | 50.65533 | 70.39859 | 29879 ft | 378 kts | 284° |
| 2026-05-06 11:26 | 50.66185 | 70.35877 | 30320 ft | 376 kts | 284° |
| 2026-05-06 11:26 | 50.66755 | 70.31848 | 30811 ft | 373 kts | 279° |
| 2026-05-06 11:26 | 50.67084 | 70.27836 | 31252 ft | 371 kts | 275° |
| 2026-05-06 11:27 | 50.67189 | 70.23804 | 31645 ft | 371 kts | 271° |
| 2026-05-06 11:27 | 50.67069 | 70.19762 | 32048 ft | 370 kts | 267° |
| 2026-05-06 11:27 | 50.66725 | 70.15775 | 32452 ft | 370 kts | 263° |
| 2026-05-06 11:27 | 50.66157 | 70.11788 | 32808 ft | 371 kts | 259° |
| 2026-05-06 11:28 | 50.65380 | 70.07937 | 33115 ft | 373 kts | 255° |
| 2026-05-06 11:28 | 50.64524 | 70.04117 | 33485 ft | 371 kts | 255° |
| 2026-05-06 11:28 | 50.63658 | 70.00297 | 33838 ft | 370 kts | 255° |
| 2026-05-06 11:28 | 50.62794 | 69.96498 | 34157 ft | 369 kts | 255° |
| 2026-05-06 11:29 | 50.61925 | 69.92716 | 34437 ft | 368 kts | 256° |
| 2026-05-06 11:29 | 50.61061 | 69.88944 | 34635 ft | 369 kts | 256° |
| 2026-05-06 11:29 | 50.60191 | 69.85165 | 34783 ft | 371 kts | 255° |
| 2026-05-06 11:29 | 50.59311 | 69.81337 | 34905 ft | 373 kts | 255° |
| 2026-05-06 11:30 | 50.58436 | 69.77543 | 35078 ft | 373 kts | 255° |
| 2026-05-06 11:30 | 50.57546 | 69.73705 | 35230 ft | 375 kts | 255° |
| 2026-05-06 11:30 | 50.56655 | 69.69867 | 35371 ft | 376 kts | 255° |
| 2026-05-06 11:30 | 50.55755 | 69.66009 | 35531 ft | 376 kts | 255° |
| 2026-05-06 11:31 | 50.54857 | 69.62148 | 35644 ft | 378 kts | 255° |
| 2026-05-06 11:31 | 50.53956 | 69.58292 | 35764 ft | 380 kts | 254° |
| 2026-05-06 11:31 | 50.53045 | 69.54406 | 35871 ft | 381 kts | 254° |
| 2026-05-06 11:31 | 50.52136 | 69.50518 | 35997 ft | 382 kts | 254° |
| 2026-05-06 11:32 | 50.51208 | 69.46576 | 36044 ft | 383 kts | 254° |
| 2026-05-06 11:32 | 50.49373 | 69.38789 | 36048 ft | 382 kts | 253° |
| 2026-05-06 11:33 | 50.47518 | 69.30966 | 36055 ft | 383 kts | 253° |
| 2026-05-06 11:33 | 50.45665 | 69.23153 | 36054 ft | 382 kts | 253° |
| 2026-05-06 11:34 | 50.43829 | 69.15439 | 36049 ft | 381 kts | 253° |
| 2026-05-06 11:34 | 50.41956 | 69.07614 | 36046 ft | 383 kts | 253° |
| 2026-05-06 11:35 | 50.40087 | 68.99824 | 36048 ft | 382 kts | 253° |
| 2026-05-06 11:35 | 50.38214 | 68.92059 | 36049 ft | 383 kts | 252° |
| 2026-05-06 11:36 | 50.36341 | 68.84320 | 36045 ft | 382 kts | 253° |
| 2026-05-06 11:36 | 50.34413 | 68.76603 | 36043 ft | 382 kts | 252° |
| 2026-05-06 11:37 | 50.32448 | 68.68865 | 36037 ft | 383 kts | 251° |
| 2026-05-06 11:37 | 50.30487 | 68.61161 | 36043 ft | 382 kts | 252° |
| 2026-05-06 11:38 | 50.28522 | 68.53464 | 36039 ft | 383 kts | 252° |
| 2026-05-06 11:38 | 50.26541 | 68.45731 | 36042 ft | 383 kts | 252° |
| 2026-05-06 11:39 | 50.24562 | 68.38030 | 36042 ft | 383 kts | 251° |
| 2026-05-06 11:39 | 50.22588 | 68.30379 | 36037 ft | 383 kts | 251° |
| 2026-05-06 11:40 | 50.20599 | 68.22675 | 36038 ft | 382 kts | 250° |
| 2026-05-06 11:40 | 50.18609 | 68.14993 | 36037 ft | 382 kts | 250° |
| 2026-05-06 11:41 | 50.16608 | 68.07308 | 36033 ft | 383 kts | 251° |
| 2026-05-06 11:41 | 50.14595 | 67.99603 | 36034 ft | 383 kts | 250° |
| 2026-05-06 11:42 | 50.12588 | 67.91937 | 36027 ft | 383 kts | 250° |
| 2026-05-06 11:42 | 50.10562 | 67.84238 | 36024 ft | 382 kts | 250° |
| 2026-05-06 11:43 | 50.08559 | 67.76643 | 36022 ft | 381 kts | 250° |
| 2026-05-06 11:43 | 50.06522 | 67.68951 | 36025 ft | 382 kts | 250° |
| 2026-05-06 11:44 | 50.03488 | 67.57540 | 36025 ft | 382 kts | 250° |
| 2026-05-06 11:44 | 50.01452 | 67.49917 | 36025 ft | 382 kts | 250° |
| 2026-05-06 11:45 | 49.99413 | 67.42305 | 36021 ft | 381 kts | 250° |
| 2026-05-06 11:45 | 49.97370 | 67.34689 | 36019 ft | 382 kts | 249° |
| 2026-05-06 11:46 | 49.95323 | 67.27098 | 36022 ft | 381 kts | 249° |
| 2026-05-06 11:46 | 49.93269 | 67.19504 | 36019 ft | 382 kts | 249° |
| 2026-05-06 11:47 | 49.91209 | 67.11905 | 36019 ft | 381 kts | 249° |
| 2026-05-06 11:47 | 49.89151 | 67.04330 | 36018 ft | 380 kts | 249° |
| 2026-05-06 11:48 | 49.87077 | 66.96733 | 36019 ft | 382 kts | 249° |
| 2026-05-06 11:48 | 49.85032 | 66.89265 | 36024 ft | 382 kts | 249° |
| 2026-05-06 11:49 | 49.82967 | 66.81744 | 36024 ft | 382 kts | 249° |
| 2026-05-06 11:49 | 49.80883 | 66.74196 | 36027 ft | 381 kts | 249° |
| 2026-05-06 11:50 | 49.78802 | 66.66681 | 36028 ft | 381 kts | 249° |
| 2026-05-06 11:50 | 49.76720 | 66.59176 | 36027 ft | 381 kts | 248° |
| 2026-05-06 11:51 | 49.74620 | 66.51636 | 36026 ft | 382 kts | 248° |
| 2026-05-06 11:51 | 49.72529 | 66.44152 | 36024 ft | 381 kts | 248° |
| 2026-05-06 11:52 | 49.70430 | 66.36661 | 36028 ft | 381 kts | 248° |
| 2026-05-06 11:52 | 49.68318 | 66.29142 | 36029 ft | 381 kts | 247° |
| 2026-05-06 11:53 | 49.66221 | 66.21695 | 36025 ft | 381 kts | 247° |
| 2026-05-06 11:53 | 49.64108 | 66.14230 | 36021 ft | 381 kts | 247° |
| 2026-05-06 11:54 | 49.61979 | 66.06729 | 36017 ft | 381 kts | 247° |
| 2026-05-06 11:54 | 49.59867 | 65.99300 | 36014 ft | 381 kts | 247° |
| 2026-05-06 11:55 | 49.57732 | 65.91824 | 36013 ft | 380 kts | 247° |
| 2026-05-06 11:55 | 49.55596 | 65.84370 | 36014 ft | 380 kts | 247° |
| 2026-05-06 11:56 | 49.53462 | 65.76950 | 36014 ft | 380 kts | 247° |
| 2026-05-06 11:56 | 49.51314 | 65.69499 | 36012 ft | 381 kts | 247° |
| 2026-05-06 11:57 | 49.49173 | 65.62094 | 36008 ft | 380 kts | 247° |
| 2026-05-06 11:57 | 49.47018 | 65.54652 | 36009 ft | 382 kts | 246° |
| 2026-05-06 11:58 | 49.44854 | 65.47227 | 36004 ft | 381 kts | 246° |
| 2026-05-06 11:58 | 49.42700 | 65.39851 | 36003 ft | 380 kts | 247° |
| 2026-05-06 11:59 | 49.40539 | 65.32465 | 36001 ft | 381 kts | 246° |
| 2026-05-06 11:59 | 49.38364 | 65.25047 | 36000 ft | 382 kts | 245° |
| 2026-05-06 12:00 | 49.36166 | 65.17591 | 35993 ft | 381 kts | 245° |
| 2026-05-06 12:00 | 49.33986 | 65.10206 | 35988 ft | 382 kts | 245° |
| 2026-05-06 12:01 | 49.31799 | 65.02838 | 35991 ft | 382 kts | 245° |
| 2026-05-06 12:01 | 49.29591 | 64.95412 | 35985 ft | 383 kts | 246° |
| 2026-05-06 12:02 | 49.27391 | 64.88013 | 35993 ft | 382 kts | 245° |
| 2026-05-06 12:02 | 49.25176 | 64.80608 | 36000 ft | 381 kts | 245° |
| 2026-05-06 12:03 | 49.22973 | 64.73262 | 36004 ft | 382 kts | 245° |
| 2026-05-06 12:03 | 49.20776 | 64.65958 | 36003 ft | 381 kts | 245° |
| 2026-05-06 12:04 | 49.18557 | 64.58601 | 36006 ft | 382 kts | 245° |
| 2026-05-06 12:04 | 49.16329 | 64.51242 | 36006 ft | 381 kts | 245° |
| 2026-05-06 12:05 | 49.14103 | 64.43909 | 36010 ft | 381 kts | 245° |
| 2026-05-06 12:05 | 49.11879 | 64.36600 | 36005 ft | 382 kts | 245° |
| 2026-05-06 12:06 | 49.09642 | 64.29277 | 36005 ft | 382 kts | 244° |
| 2026-05-06 12:06 | 49.07408 | 64.21980 | 36003 ft | 382 kts | 244° |
| 2026-05-06 12:07 | 49.05161 | 64.14658 | 36002 ft | 382 kts | 244° |
| 2026-05-06 12:07 | 49.02903 | 64.07337 | 35994 ft | 382 kts | 244° |
| 2026-05-06 12:08 | 49.00656 | 64.00060 | 35989 ft | 383 kts | 244° |
| 2026-05-06 12:08 | 48.98381 | 63.92715 | 35980 ft | 384 kts | 244° |
| 2026-05-06 12:09 | 48.96101 | 63.85379 | 35980 ft | 384 kts | 244° |
| 2026-05-06 12:09 | 48.93819 | 63.78054 | 35983 ft | 385 kts | 244° |
| 2026-05-06 12:10 | 48.91542 | 63.70780 | 35984 ft | 383 kts | 244° |
| 2026-05-06 12:10 | 48.89253 | 63.63472 | 35985 ft | 383 kts | 243° |
| 2026-05-06 12:11 | 48.86973 | 63.56226 | 35984 ft | 383 kts | 243° |
| 2026-05-06 12:11 | 48.84676 | 63.48946 | 35985 ft | 382 kts | 244° |
| 2026-05-06 12:12 | 48.82395 | 63.41725 | 35983 ft | 383 kts | 243° |
| 2026-05-06 12:12 | 48.80081 | 63.34430 | 35988 ft | 383 kts | 243° |
| 2026-05-06 12:13 | 48.77774 | 63.27179 | 35986 ft | 384 kts | 242° |
| 2026-05-06 12:13 | 48.75470 | 63.19956 | 35986 ft | 384 kts | 242° |
| 2026-05-06 12:14 | 48.73148 | 63.12699 | 35984 ft | 384 kts | 242° |
| 2026-05-06 12:14 | 48.70821 | 63.05453 | 35991 ft | 384 kts | 242° |
| 2026-05-06 12:15 | 48.68499 | 62.98230 | 35988 ft | 383 kts | 242° |
| 2026-05-06 12:15 | 48.66154 | 62.90970 | 35990 ft | 384 kts | 242° |
| 2026-05-06 12:16 | 48.63836 | 62.83805 | 35989 ft | 383 kts | 242° |
| 2026-05-06 12:16 | 48.61487 | 62.76571 | 35993 ft | 383 kts | 242° |
| 2026-05-06 12:17 | 48.59145 | 62.69378 | 35990 ft | 385 kts | 242° |
| 2026-05-06 12:17 | 48.56786 | 62.62150 | 35987 ft | 385 kts | 242° |
| 2026-05-06 12:18 | 48.54414 | 62.54900 | 35984 ft | 386 kts | 242° |
| 2026-05-06 12:18 | 48.52058 | 62.47727 | 35980 ft | 385 kts | 242° |
| 2026-05-06 12:19 | 48.49673 | 62.40483 | 35982 ft | 386 kts | 242° |
| 2026-05-06 12:19 | 48.47291 | 62.33266 | 35981 ft | 386 kts | 241° |
| 2026-05-06 12:20 | 48.44907 | 62.26063 | 35982 ft | 385 kts | 241° |
| 2026-05-06 12:20 | 48.42547 | 62.18951 | 35985 ft | 386 kts | 240° |
| 2026-05-06 12:21 | 48.40157 | 62.11780 | 35994 ft | 386 kts | 240° |
| 2026-05-06 12:21 | 48.37752 | 62.04582 | 35992 ft | 386 kts | 240° |
| 2026-05-06 12:22 | 48.35359 | 61.97430 | 35996 ft | 386 kts | 240° |
| 2026-05-06 12:22 | 48.32947 | 61.90250 | 35998 ft | 387 kts | 240° |
| 2026-05-06 12:23 | 48.30530 | 61.83070 | 35995 ft | 386 kts | 240° |
| 2026-05-06 12:23 | 48.28092 | 61.75850 | 35993 ft | 387 kts | 240° |
| 2026-05-06 12:24 | 48.25677 | 61.68712 | 35991 ft | 387 kts | 240° |
| 2026-05-06 12:24 | 48.23240 | 61.61537 | 35987 ft | 388 kts | 240° |
| 2026-05-06 12:25 | 48.20793 | 61.54354 | 35989 ft | 389 kts | 240° |
| 2026-05-06 12:25 | 48.18324 | 61.47121 | 35992 ft | 388 kts | 240° |
| 2026-05-06 12:26 | 48.15879 | 61.39978 | 35988 ft | 389 kts | 240° |
| 2026-05-06 12:26 | 48.13409 | 61.32784 | 35990 ft | 389 kts | 239° |
| 2026-05-06 12:27 | 48.10939 | 61.25614 | 35986 ft | 389 kts | 239° |
| 2026-05-06 12:27 | 48.08452 | 61.18412 | 35975 ft | 389 kts | 239° |
| 2026-05-06 12:28 | 48.05969 | 61.11236 | 35969 ft | 390 kts | 239° |
| 2026-05-06 12:28 | 48.03474 | 61.04051 | 35964 ft | 391 kts | 239° |
| 2026-05-06 12:29 | 48.00986 | 60.96898 | 35963 ft | 391 kts | 239° |
| 2026-05-06 12:29 | 47.98490 | 60.89735 | 35963 ft | 391 kts | 239° |
| 2026-05-06 12:30 | 47.95978 | 60.82559 | 35955 ft | 390 kts | 239° |
| 2026-05-06 12:30 | 47.93472 | 60.75422 | 35957 ft | 392 kts | 239° |
| 2026-05-06 12:31 | 47.90943 | 60.68232 | 35962 ft | 392 kts | 239° |
| 2026-05-06 12:31 | 47.88406 | 60.61047 | 35958 ft | 393 kts | 239° |
| 2026-05-06 12:32 | 47.85876 | 60.53895 | 35958 ft | 393 kts | 239° |
| 2026-05-06 12:32 | 47.83324 | 60.46703 | 35964 ft | 394 kts | 239° |
| 2026-05-06 12:33 | 47.80765 | 60.39517 | 35964 ft | 394 kts | 239° |
| 2026-05-06 12:33 | 47.78191 | 60.32302 | 35968 ft | 395 kts | 238° |
| 2026-05-06 12:34 | 47.75606 | 60.25080 | 35969 ft | 394 kts | 238° |
| 2026-05-06 12:34 | 47.73040 | 60.17938 | 35970 ft | 395 kts | 238° |
| 2026-05-06 12:35 | 47.70455 | 60.10748 | 35963 ft | 395 kts | 238° |
| 2026-05-06 12:35 | 47.67871 | 60.03579 | 35967 ft | 396 kts | 239° |
| 2026-05-06 12:36 | 47.65283 | 59.96424 | 35960 ft | 396 kts | 239° |
| 2026-05-06 12:36 | 47.62669 | 59.89214 | 35963 ft | 396 kts | 239° |
| 2026-05-06 12:37 | 47.60068 | 59.82061 | 35963 ft | 396 kts | 238° |
| 2026-05-06 12:37 | 47.57465 | 59.74922 | 35959 ft | 395 kts | 239° |
| 2026-05-06 12:38 | 47.54854 | 59.67782 | 35959 ft | 395 kts | 239° |
| 2026-05-06 12:38 | 47.52243 | 59.60662 | 35958 ft | 395 kts | 239° |
| 2026-05-06 12:39 | 47.49623 | 59.53537 | 35958 ft | 395 kts | 239° |
| 2026-05-06 12:39 | 47.47014 | 59.46458 | 35954 ft | 395 kts | 239° |
| 2026-05-06 12:40 | 47.44384 | 59.39342 | 35950 ft | 395 kts | 239° |
| 2026-05-06 12:40 | 47.41761 | 59.32267 | 35944 ft | 395 kts | 238° |
| 2026-05-06 12:41 | 47.39114 | 59.25143 | 35940 ft | 395 kts | 238° |
| 2026-05-06 12:41 | 47.36479 | 59.18069 | 35935 ft | 395 kts | 238° |
| 2026-05-06 12:42 | 47.33855 | 59.11042 | 35935 ft | 395 kts | 238° |
| 2026-05-06 12:42 | 47.31210 | 59.03982 | 35935 ft | 394 kts | 238° |
| 2026-05-06 12:43 | 47.28561 | 58.96926 | 35924 ft | 395 kts | 238° |
| 2026-05-06 12:43 | 47.25907 | 58.89878 | 35929 ft | 395 kts | 238° |
| 2026-05-06 12:44 | 47.23247 | 58.82831 | 35929 ft | 396 kts | 238° |
| 2026-05-06 12:44 | 47.20584 | 58.75798 | 35931 ft | 395 kts | 238° |
| 2026-05-06 12:45 | 47.17910 | 58.68756 | 35924 ft | 395 kts | 238° |
| 2026-05-06 12:46 | 47.13905 | 58.58234 | 35914 ft | 395 kts | 238° |
| 2026-05-06 12:46 | 47.11215 | 58.51196 | 35919 ft | 396 kts | 238° |
| 2026-05-06 12:47 | 47.08538 | 58.44200 | 35915 ft | 395 kts | 238° |
| 2026-05-06 12:47 | 47.05837 | 58.37165 | 35915 ft | 395 kts | 238° |
| 2026-05-06 12:48 | 47.03143 | 58.30172 | 35915 ft | 395 kts | 238° |
| 2026-05-06 12:48 | 47.00464 | 58.23229 | 35915 ft | 395 kts | 238° |
| 2026-05-06 12:49 | 46.97751 | 58.16219 | 35910 ft | 395 kts | 238° |
| 2026-05-06 12:49 | 46.95041 | 58.09234 | 35904 ft | 395 kts | 238° |
| 2026-05-06 12:50 | 46.92341 | 58.02293 | 35910 ft | 395 kts | 238° |
| 2026-05-06 12:50 | 46.89633 | 57.95349 | 35913 ft | 395 kts | 238° |
| 2026-05-06 12:51 | 46.86920 | 57.88409 | 35920 ft | 395 kts | 238° |
| 2026-05-06 12:51 | 46.84192 | 57.81448 | 35925 ft | 395 kts | 238° |
| 2026-05-06 12:52 | 46.81460 | 57.74496 | 35925 ft | 395 kts | 238° |
| 2026-05-06 12:52 | 46.78730 | 57.67566 | 35922 ft | 395 kts | 238° |
| 2026-05-06 12:53 | 46.76012 | 57.60687 | 35919 ft | 395 kts | 238° |
| 2026-05-06 12:53 | 46.73266 | 57.53748 | 35918 ft | 395 kts | 238° |
| 2026-05-06 12:54 | 46.70519 | 57.46830 | 35915 ft | 395 kts | 238° |
| 2026-05-06 12:54 | 46.67773 | 57.39932 | 35909 ft | 396 kts | 238° |
| 2026-05-06 12:55 | 46.65017 | 57.33026 | 35909 ft | 395 kts | 237° |
| 2026-05-06 12:55 | 46.62251 | 57.26113 | 35897 ft | 395 kts | 237° |
| 2026-05-06 12:56 | 46.59493 | 57.19234 | 35893 ft | 395 kts | 237° |
| 2026-05-06 12:56 | 46.56726 | 57.12350 | 35895 ft | 394 kts | 237° |
| 2026-05-06 12:57 | 46.53965 | 57.05500 | 35895 ft | 395 kts | 237° |
| 2026-05-06 12:57 | 46.51201 | 56.98663 | 35890 ft | 394 kts | 237° |
| 2026-05-06 12:58 | 46.48432 | 56.91830 | 35888 ft | 395 kts | 237° |
| 2026-05-06 12:58 | 46.45639 | 56.84949 | 35890 ft | 395 kts | 237° |
| 2026-05-06 12:59 | 46.42852 | 56.78101 | 35893 ft | 395 kts | 237° |
| 2026-05-06 12:59 | 46.40032 | 56.71192 | 35896 ft | 396 kts | 237° |
| 2026-05-06 13:00 | 46.37233 | 56.64351 | 35893 ft | 396 kts | 237° |
| 2026-05-06 13:00 | 46.34412 | 56.57473 | 35892 ft | 395 kts | 237° |
| 2026-05-06 13:01 | 46.31577 | 56.50575 | 35889 ft | 395 kts | 237° |
| 2026-05-06 13:01 | 46.28762 | 56.43747 | 35888 ft | 395 kts | 237° |
| 2026-05-06 13:02 | 46.25967 | 56.36981 | 35890 ft | 395 kts | 237° |
| 2026-05-06 13:02 | 46.23130 | 56.30133 | 35892 ft | 395 kts | 237° |
| 2026-05-06 13:03 | 46.20314 | 56.23353 | 35890 ft | 395 kts | 237° |
| 2026-05-06 13:03 | 46.17488 | 56.16562 | 35883 ft | 395 kts | 237° |
| 2026-05-06 13:04 | 46.14664 | 56.09796 | 35880 ft | 395 kts | 237° |
| 2026-05-06 13:04 | 46.11834 | 56.03029 | 35881 ft | 395 kts | 237° |
| 2026-05-06 13:05 | 46.08992 | 55.96252 | 35876 ft | 396 kts | 237° |
| 2026-05-06 13:05 | 46.06145 | 55.89480 | 35876 ft | 396 kts | 237° |
| 2026-05-06 13:06 | 46.03296 | 55.82719 | 35871 ft | 396 kts | 237° |
| 2026-05-06 13:06 | 46.00443 | 55.75962 | 35861 ft | 396 kts | 237° |
| 2026-05-06 13:07 | 45.97593 | 55.69234 | 35853 ft | 396 kts | 237° |
| 2026-05-06 13:07 | 45.94728 | 55.62481 | 35860 ft | 396 kts | 237° |
| 2026-05-06 13:08 | 45.91851 | 55.55722 | 35867 ft | 396 kts | 237° |
| 2026-05-06 13:08 | 45.88981 | 55.48991 | 35873 ft | 396 kts | 237° |
| 2026-05-06 13:09 | 45.86091 | 55.42229 | 35875 ft | 395 kts | 237° |
| 2026-05-06 13:09 | 45.83205 | 55.35500 | 35876 ft | 395 kts | 237° |
| 2026-05-06 13:10 | 45.80287 | 55.28707 | 35879 ft | 395 kts | 236° |
| 2026-05-06 13:10 | 45.77394 | 55.21988 | 35877 ft | 396 kts | 236° |
| 2026-05-06 13:11 | 45.74491 | 55.15264 | 35875 ft | 396 kts | 236° |
| 2026-05-06 13:11 | 45.71587 | 55.08553 | 35871 ft | 395 kts | 236° |
| 2026-05-06 13:12 | 45.68684 | 55.01860 | 35868 ft | 396 kts | 236° |
| 2026-05-06 13:12 | 45.65791 | 54.95204 | 35864 ft | 396 kts | 236° |
| 2026-05-06 13:13 | 45.62889 | 54.88546 | 35864 ft | 396 kts | 236° |
| 2026-05-06 13:13 | 45.59991 | 54.81912 | 35865 ft | 396 kts | 236° |
| 2026-05-06 13:14 | 45.57078 | 54.75259 | 35864 ft | 396 kts | 236° |
| 2026-05-06 13:14 | 45.54155 | 54.68604 | 35865 ft | 396 kts | 236° |
| 2026-05-06 13:15 | 45.51209 | 54.61905 | 35865 ft | 395 kts | 236° |
| 2026-05-06 13:15 | 45.48286 | 54.55274 | 35868 ft | 396 kts | 236° |
| 2026-05-06 13:16 | 45.45354 | 54.48644 | 35864 ft | 396 kts | 236° |
| 2026-05-06 13:16 | 45.42418 | 54.42017 | 35860 ft | 396 kts | 236° |
| 2026-05-06 13:17 | 45.39476 | 54.35393 | 35860 ft | 396 kts | 236° |
| 2026-05-06 13:17 | 45.36543 | 54.28804 | 35864 ft | 396 kts | 235° |
| 2026-05-06 13:18 | 45.33593 | 54.22190 | 35863 ft | 396 kts | 235° |
| 2026-05-06 13:18 | 45.30667 | 54.15651 | 36126 ft | 395 kts | 235° |
| 2026-05-06 13:18 | 45.29196 | 54.12364 | 35989 ft | 394 kts | 235° |
| 2026-05-06 13:19 | 45.27719 | 54.09070 | 35923 ft | 393 kts | 235° |
| 2026-05-06 13:19 | 45.26249 | 54.05796 | 35726 ft | 394 kts | 235° |
| 2026-05-06 13:19 | 45.24786 | 54.02544 | 35798 ft | 395 kts | 235° |
| 2026-05-06 13:20 | 45.21819 | 53.95961 | 35851 ft | 396 kts | 235° |
| 2026-05-06 13:20 | 45.20347 | 53.92695 | 36130 ft | 396 kts | 235° |
| 2026-05-06 13:20 | 45.18844 | 53.89365 | 36008 ft | 395 kts | 235° |
| 2026-05-06 13:21 | 45.15902 | 53.82861 | 35699 ft | 394 kts | 235° |
| 2026-05-06 13:21 | 45.12925 | 53.76300 | 35841 ft | 396 kts | 235° |
| 2026-05-06 13:22 | 45.09958 | 53.69773 | 35875 ft | 396 kts | 235° |
| 2026-05-06 13:22 | 45.06967 | 53.63205 | 35881 ft | 397 kts | 235° |
| 2026-05-06 13:23 | 45.03977 | 53.56655 | 35889 ft | 397 kts | 235° |
| 2026-05-06 13:23 | 45.00988 | 53.50122 | 35885 ft | 397 kts | 235° |
| 2026-05-06 13:24 | 44.97977 | 53.43560 | 35890 ft | 397 kts | 235° |
| 2026-05-06 13:24 | 44.95033 | 53.37156 | 35888 ft | 397 kts | 235° |
| 2026-05-06 13:25 | 44.92027 | 53.30632 | 35888 ft | 398 kts | 234° |
| 2026-05-06 13:25 | 44.89006 | 53.24091 | 35569 ft | 397 kts | 234° |
| 2026-05-06 13:25 | 44.87499 | 53.20832 | 35238 ft | 395 kts | 234° |
| 2026-05-06 13:26 | 44.86004 | 53.17605 | 34788 ft | 396 kts | 234° |
| 2026-05-06 13:26 | 44.84495 | 53.14351 | 34254 ft | 400 kts | 234° |
| 2026-05-06 13:26 | 44.82978 | 53.11083 | 33583 ft | 403 kts | 234° |
| 2026-05-06 13:26 | 44.81441 | 53.07772 | 32904 ft | 405 kts | 233° |
| 2026-05-06 13:27 | 44.79892 | 53.04442 | 32235 ft | 407 kts | 233° |
| 2026-05-06 13:27 | 44.78363 | 53.01155 | 31530 ft | 409 kts | 233° |
| 2026-05-06 13:27 | 44.76795 | 52.97791 | 30805 ft | 411 kts | 233° |
| 2026-05-06 13:27 | 44.75243 | 52.94466 | 30058 ft | 413 kts | 233° |
| 2026-05-06 13:28 | 44.73669 | 52.91099 | 29294 ft | 412 kts | 232° |
| 2026-05-06 13:28 | 44.72102 | 52.87750 | 28707 ft | 407 kts | 233° |
| 2026-05-06 13:28 | 44.70553 | 52.84440 | 28267 ft | 400 kts | 232° |
| 2026-05-06 13:28 | 44.69053 | 52.81240 | 27837 ft | 393 kts | 232° |
| 2026-05-06 13:29 | 44.67573 | 52.78086 | 27400 ft | 387 kts | 232° |
| 2026-05-06 13:29 | 44.66101 | 52.74956 | 26950 ft | 382 kts | 232° |
| 2026-05-06 13:29 | 44.64652 | 52.71876 | 26502 ft | 377 kts | 232° |
| 2026-05-06 13:29 | 44.63217 | 52.68830 | 26057 ft | 372 kts | 232° |
| 2026-05-06 13:30 | 44.61802 | 52.65831 | 25618 ft | 368 kts | 232° |
| 2026-05-06 13:30 | 44.60401 | 52.62864 | 25205 ft | 363 kts | 232° |
| 2026-05-06 13:30 | 44.59025 | 52.59953 | 24763 ft | 360 kts | 232° |
| 2026-05-06 13:30 | 44.57645 | 52.57037 | 24299 ft | 357 kts | 232° |
| 2026-05-06 13:31 | 44.56276 | 52.54146 | 23859 ft | 353 kts | 232° |
| 2026-05-06 13:31 | 44.54932 | 52.51311 | 23433 ft | 350 kts | 231° |
| 2026-05-06 13:31 | 44.53591 | 52.48490 | 23008 ft | 346 kts | 232° |
| 2026-05-06 13:31 | 44.52277 | 52.45725 | 22573 ft | 344 kts | 232° |
| 2026-05-06 13:32 | 44.50935 | 52.42904 | 22076 ft | 343 kts | 232° |
| 2026-05-06 13:32 | 44.49632 | 52.40169 | 21633 ft | 340 kts | 232° |
| 2026-05-06 13:32 | 44.48334 | 52.37445 | 21198 ft | 338 kts | 232° |
| 2026-05-06 13:32 | 44.47020 | 52.34690 | 20730 ft | 336 kts | 232° |
| 2026-05-06 13:33 | 44.45732 | 52.31991 | 20283 ft | 335 kts | 232° |
| 2026-05-06 13:33 | 44.44435 | 52.29279 | 19803 ft | 334 kts | 232° |
| 2026-05-06 13:33 | 44.43153 | 52.26597 | 19326 ft | 333 kts | 232° |
| 2026-05-06 13:33 | 44.41867 | 52.23911 | 18876 ft | 332 kts | 232° |
| 2026-05-06 13:34 | 44.40579 | 52.21224 | 18408 ft | 331 kts | 232° |
| 2026-05-06 13:34 | 44.39309 | 52.18577 | 17975 ft | 329 kts | 232° |
| 2026-05-06 13:34 | 44.37962 | 52.16010 | 17530 ft | 327 kts | 229° |
| 2026-05-06 13:34 | 44.36499 | 52.13569 | 17057 ft | 325 kts | 225° |
| 2026-05-06 13:35 | 44.34974 | 52.11310 | 16606 ft | 323 kts | 223° |
| 2026-05-06 13:35 | 44.33408 | 52.09038 | 16179 ft | 321 kts | 223° |
| 2026-05-06 13:35 | 44.31884 | 52.06834 | 15735 ft | 320 kts | 223° |
| 2026-05-06 13:35 | 44.30341 | 52.04604 | 15306 ft | 318 kts | 223° |
| 2026-05-06 13:36 | 44.28800 | 52.02380 | 14865 ft | 316 kts | 223° |
| 2026-05-06 13:36 | 44.27281 | 52.00191 | 14428 ft | 315 kts | 223° |
| 2026-05-06 13:36 | 44.25769 | 51.98017 | 13977 ft | 315 kts | 223° |
| 2026-05-06 13:36 | 44.24249 | 51.95830 | 13549 ft | 313 kts | 223° |
| 2026-05-06 13:37 | 44.22730 | 51.93652 | 13126 ft | 312 kts | 223° |
| 2026-05-06 13:37 | 44.21231 | 51.91505 | 12658 ft | 313 kts | 223° |
| 2026-05-06 13:37 | 44.19710 | 51.89329 | 12199 ft | 313 kts | 224° |
| 2026-05-06 13:37 | 44.18206 | 51.87177 | 11717 ft | 314 kts | 224° |
| 2026-05-06 13:38 | 44.16682 | 51.84994 | 11239 ft | 314 kts | 224° |
| 2026-05-06 13:38 | 44.15165 | 51.82822 | 10775 ft | 314 kts | 225° |
| 2026-05-06 13:38 | 44.13636 | 51.80636 | 10341 ft | 312 kts | 225° |
| 2026-05-06 13:38 | 44.12153 | 51.78516 | 10156 ft | 302 kts | 225° |
| 2026-05-06 13:39 | 44.10709 | 51.76450 | 10055 ft | 289 kts | 225° |
| 2026-05-06 13:39 | 44.09341 | 51.74495 | 9918 ft | 278 kts | 225° |
| 2026-05-06 13:39 | 44.07990 | 51.72570 | 9520 ft | 278 kts | 225° |
| 2026-05-06 13:39 | 44.06658 | 51.70675 | 9182 ft | 277 kts | 225° |
| 2026-05-06 13:40 | 44.05323 | 51.68773 | 8840 ft | 276 kts | 225° |
| 2026-05-06 13:40 | 44.03983 | 51.66867 | 8478 ft | 274 kts | 225° |
| 2026-05-06 13:40 | 44.02654 | 51.64978 | 8142 ft | 271 kts | 225° |
| 2026-05-06 13:40 | 44.01340 | 51.63111 | 7831 ft | 269 kts | 225° |
| 2026-05-06 13:41 | 44.00047 | 51.61277 | 7515 ft | 267 kts | 225° |
| 2026-05-06 13:41 | 43.98762 | 51.59455 | 7171 ft | 266 kts | 225° |
| 2026-05-06 13:41 | 43.97468 | 51.57623 | 6847 ft | 264 kts | 226° |
| 2026-05-06 13:41 | 43.96194 | 51.55817 | 6523 ft | 263 kts | 226° |
| 2026-05-06 13:42 | 43.94910 | 51.53998 | 6204 ft | 261 kts | 226° |
| 2026-05-06 13:42 | 43.93640 | 51.52202 | 5893 ft | 260 kts | 226° |
| 2026-05-06 13:42 | 43.92395 | 51.50441 | 5575 ft | 259 kts | 226° |
| 2026-05-06 13:42 | 43.91129 | 51.48652 | 5264 ft | 257 kts | 226° |
| 2026-05-06 13:43 | 43.89878 | 51.46884 | 4956 ft | 256 kts | 226° |
| 2026-05-06 13:43 | 43.88640 | 51.45138 | 4646 ft | 255 kts | 227° |
| 2026-05-06 13:43 | 43.87394 | 51.43382 | 4329 ft | 254 kts | 227° |
| 2026-05-06 13:43 | 43.86167 | 51.41652 | 4024 ft | 253 kts | 227° |
| 2026-05-06 13:44 | 43.84935 | 51.39919 | 3728 ft | 252 kts | 227° |
| 2026-05-06 13:44 | 43.83704 | 51.38187 | 3441 ft | 250 kts | 228° |
| 2026-05-06 13:44 | 43.82465 | 51.36565 | 3308 ft | 241 kts | 222° |
| 2026-05-06 13:44 | 43.81152 | 51.35211 | 3286 ft | 228 kts | 217° |
| 2026-05-06 13:45 | 43.79867 | 51.34049 | 3243 ft | 215 kts | 215° |
| 2026-05-06 13:45 | 43.77974 | 51.31279 | 3042 ft | 198 kts | 266° |
| 2026-05-06 13:45 | 43.78037 | 51.29385 | 2960 ft | 197 kts | 276° |
| 2026-05-06 13:46 | 43.78146 | 51.27494 | 2827 ft | 197 kts | 275° |
| 2026-05-06 13:46 | 43.78263 | 51.25656 | 2661 ft | 189 kts | 284° |
| 2026-05-06 13:46 | 43.78810 | 51.24095 | 2520 ft | 177 kts | 304° |
| 2026-05-06 13:46 | 43.79538 | 51.22734 | 2148 ft | 173 kts | 308° |
| 2026-05-06 13:47 | 43.80238 | 51.21463 | 1857 ft | 159 kts | 305° |
| 2026-05-06 13:47 | 43.80841 | 51.20249 | 1662 ft | 145 kts | 303° |
| 2026-05-06 13:47 | 43.81362 | 51.19137 | 1466 ft | 135 kts | 302° |
| 2026-05-06 13:47 | 43.81868 | 51.18035 | 1299 ft | 135 kts | 301° |
| 2026-05-06 13:48 | 43.82367 | 51.16952 | 1130 ft | 134 kts | 301° |
| 2026-05-06 13:48 | 43.82870 | 51.15861 | 952 ft | 134 kts | 301° |
| 2026-05-06 13:48 | 43.83372 | 51.14776 | 771 ft | 133 kts | 301° |
| 2026-05-06 13:48 | 43.83868 | 51.13701 | 593 ft | 133 kts | 301° |
| 2026-05-06 13:49 | 43.84371 | 51.12628 | 397 ft | 132 kts | 302° |
| 2026-05-06 13:49 | 43.84869 | 51.11566 | 232 ft | 132 kts | 301° |
| 2026-05-06 13:49 | 43.85362 | 51.10496 | 71 ft | 130 kts | 301° |
| 2026-05-06 13:49 | 43.85798 | 51.09546 | 72 ft | 93 kts | 302° |
| 2026-05-06 13:50 | 43.86031 | 51.09046 | 79 ft | 26 kts | 302° |
| 2026-05-06 13:50 | 43.86098 | 51.08931 | 79 ft | 7 kts | 308° |
| 2026-05-06 13:50 | 43.86087 | 51.08934 | 79 ft | 5 kts | 122° |
| 2026-05-06 13:50 | 43.86058 | 51.08991 | 79 ft | 9 kts | 127° |
| 2026-05-06 13:51 | 43.86006 | 51.09065 | 78 ft | 11 kts | 160° |
| 2026-05-06 13:51 | 43.85934 | 51.09027 | 78 ft | 11 kts | 213° |
| 2026-05-06 13:51 | 43.85863 | 51.08962 | 78 ft | 12 kts | 212° |
| 2026-05-06 13:51 | 43.85794 | 51.08902 | 78 ft | 8 kts | 211° |
| 2026-05-06 13:52 | 43.85741 | 51.08871 | 77 ft | 7 kts | 202° |
| 2026-05-06 13:52 | 43.85704 | 51.08843 | 78 ft | 5 kts | 211° |
| 2026-05-06 13:52 | 43.85697 | 51.08837 | 78 ft | 0 kts | 213° |